createdAt,value
2022-08-07T00:00:15.309Z,14.10
2022-08-07T00:03:15.634Z,14.20
2022-08-07T00:06:13.294Z,14.10
2022-08-07T00:09:16.684Z,13.80
2022-08-07T00:12:19.319Z,13.70
2022-08-07T00:15:16.638Z,14.00
2022-08-07T00:18:24.028Z,14.00
2022-08-07T00:21:55.946Z,13.90
2022-08-07T00:24:38.753Z,13.90
2022-08-07T00:27:53.235Z,13.90
2022-08-07T00:30:50.936Z,14.30
2022-08-07T00:33:47.967Z,13.90
2022-08-07T00:36:44.884Z,13.80
2022-08-07T00:39:45.090Z,13.70
2022-08-07T00:42:51.020Z,13.50
2022-08-07T00:45:49.639Z,13.60
2022-08-07T00:48:49.889Z,13.70
2022-08-07T00:51:57.020Z,13.80
2022-08-07T00:54:55.639Z,13.90
2022-08-07T00:57:55.873Z,14.00
2022-08-07T01:00:53.897Z,13.80
2022-08-07T01:03:56.904Z,13.60
2022-08-07T01:06:56.866Z,13.50
2022-08-07T01:10:05.711Z,13.50
2022-08-07T01:13:05.466Z,13.50
2022-08-07T01:16:06.104Z,13.70
2022-08-07T01:19:14.884Z,13.50
2022-08-07T01:22:22.878Z,13.40
2022-08-07T01:25:53.997Z,13.60
2022-08-07T01:28:51.788Z,13.70
2022-08-07T01:31:49.646Z,13.70
2022-08-07T01:34:47.501Z,13.50
2022-08-07T01:37:46.693Z,13.40
2022-08-07T01:40:45.753Z,13.40
2022-08-07T01:43:44.889Z,13.20
2022-08-07T01:46:42.938Z,13.30
2022-08-07T01:49:39.898Z,13.30
2022-08-07T01:52:38.969Z,13.40
2022-08-07T01:55:51.319Z,13.40
2022-08-07T01:58:59.144Z,13.50
2022-08-07T02:03:11.485Z,13.60
2022-08-07T02:05:48.207Z,13.40
2022-08-07T02:09:00.015Z,13.20
2022-08-07T02:12:03.460Z,13.10
2022-08-07T02:15:06.766Z,13.20
2022-08-07T02:18:04.882Z,13.10
2022-08-07T02:21:06.391Z,12.90
2022-08-07T02:24:04.643Z,12.90
2022-08-07T02:27:02.805Z,12.70
2022-08-07T02:30:03.546Z,13.10
2022-08-07T02:33:09.515Z,13.30
2022-08-07T02:36:28.266Z,13.10
2022-08-07T02:39:43.085Z,12.90
2022-08-07T02:42:41.998Z,12.80
2022-08-07T02:45:58.069Z,12.70
2022-08-07T02:48:58.274Z,12.80
2022-08-07T02:51:58.851Z,12.90
2022-08-07T02:54:58.346Z,12.70
2022-08-07T02:58:02.940Z,13.00
2022-08-07T03:01:03.416Z,12.90
2022-08-07T03:07:07.220Z,12.80
2022-08-07T03:10:09.625Z,12.90
2022-08-07T03:13:07.557Z,12.90
2022-08-07T03:16:05.987Z,12.80
2022-08-07T03:19:03.171Z,12.80
2022-08-07T03:22:04.399Z,12.90
2022-08-07T03:25:01.888Z,12.90
2022-08-07T03:28:09.731Z,12.80
2022-08-07T03:31:24.728Z,12.90
2022-08-07T03:34:39.719Z,12.80
2022-08-07T03:37:54.043Z,12.80
2022-08-07T03:40:57.344Z,12.80
2022-08-07T03:43:57.090Z,12.90
2022-08-07T03:47:12.959Z,12.70
2022-08-07T03:50:11.784Z,12.80
2022-08-07T03:53:10.354Z,12.70
2022-08-07T03:56:10.196Z,12.70
2022-08-07T03:59:13.874Z,12.60
2022-08-07T04:02:11.892Z,12.60
2022-08-07T04:05:11.485Z,12.60
2022-08-07T04:08:16.063Z,12.60
2022-08-07T04:12:25.548Z,12.60
2022-08-07T04:14:37.248Z,12.70
2022-08-07T04:18:31.004Z,12.50
2022-08-07T04:20:54.561Z,12.60
2022-08-07T04:24:05.678Z,12.40
2022-08-07T04:27:05.245Z,12.30
2022-08-07T04:30:35.581Z,12.40
2022-08-07T04:33:29.598Z,12.30
2022-08-07T04:36:26.899Z,12.50
2022-08-07T04:39:27.989Z,12.50
2022-08-07T04:42:34.368Z,12.40
2022-08-07T04:46:00.691Z,12.40
2022-08-07T04:49:38.671Z,12.60
2022-08-07T04:52:59.335Z,12.50
2022-08-07T04:58:24.301Z,12.50
2022-08-07T05:00:11.222Z,12.50
2022-08-07T05:04:00.475Z,12.60
2022-08-07T05:07:09.578Z,12.70
2022-08-07T05:10:23.186Z,12.70
2022-08-07T05:14:54.446Z,12.90
2022-08-07T05:16:59.032Z,12.90
2022-08-07T05:19:57.516Z,12.90
2022-08-07T05:23:07.009Z,13.20
2022-08-07T05:26:23.951Z,13.20
2022-08-07T05:29:23.687Z,13.30
2022-08-07T05:32:24.819Z,13.40
2022-08-07T05:35:23.892Z,13.50
2022-08-07T05:38:59.452Z,13.70
2022-08-07T05:42:01.880Z,13.70
2022-08-07T05:45:14.445Z,13.70
2022-08-07T05:48:20.927Z,13.70
2022-08-07T05:51:24.586Z,13.70
2022-08-07T05:54:44.060Z,13.80
2022-08-07T05:57:42.381Z,13.90
2022-08-07T06:00:40.279Z,14.00
2022-08-07T06:03:56.848Z,14.10
2022-08-07T06:07:03.367Z,14.20
2022-08-07T06:10:05.598Z,14.30
2022-08-07T06:13:03.479Z,14.50
2022-08-07T06:16:03.330Z,14.50
2022-08-07T06:19:03.061Z,14.70
2022-08-07T06:22:15.779Z,14.80
2022-08-07T06:25:20.633Z,15.00
2022-08-07T06:28:28.014Z,15.10
2022-08-07T06:31:46.531Z,15.20
2022-08-07T06:34:45.288Z,15.30
2022-08-07T06:37:43.586Z,15.40
2022-08-07T06:40:48.201Z,15.60
2022-08-07T06:43:59.191Z,15.70
2022-08-07T06:47:12.541Z,15.70
2022-08-07T06:50:13.482Z,15.80
2022-08-07T06:54:11.546Z,15.90
2022-08-07T06:56:49.833Z,16.10
2022-08-07T07:00:12.928Z,16.20
2022-08-07T07:03:10.871Z,16.20
2022-08-07T07:06:11.545Z,16.30
2022-08-07T07:09:31.245Z,16.40
2022-08-07T07:12:53.778Z,16.40
2022-08-07T07:16:00.318Z,16.40
2022-08-07T07:19:34.018Z,16.40
2022-08-07T07:22:35.894Z,16.60
2022-08-07T07:26:35.139Z,16.70
2022-08-07T07:29:38.674Z,16.80
2022-08-07T07:32:23.940Z,16.80
2022-08-07T07:35:23.124Z,17.00
2022-08-07T07:38:25.411Z,17.10
2022-08-07T07:41:24.099Z,17.10
2022-08-07T07:44:49.671Z,17.20
2022-08-07T07:47:52.647Z,17.30
2022-08-07T07:50:52.304Z,17.20
2022-08-07T07:53:52.814Z,17.50
2022-08-07T07:56:52.436Z,17.50
2022-08-07T07:59:53.837Z,17.40
2022-08-07T08:03:01.295Z,17.70
2022-08-07T08:06:03.912Z,17.80
2022-08-07T08:09:05.939Z,17.80
2022-08-07T08:12:06.260Z,17.80
2022-08-07T08:15:06.847Z,17.90
2022-08-07T08:18:36.884Z,18.00
2022-08-07T08:21:58.604Z,18.10
2022-08-07T08:25:41.859Z,18.30
2022-08-07T08:28:44.847Z,18.80
2022-08-07T08:32:17.522Z,19.10
2022-08-07T08:35:01.549Z,19.60
2022-08-07T08:38:04.581Z,20.20
2022-08-07T08:41:57.037Z,20.30
2022-08-07T08:45:13.320Z,20.20
2022-08-07T08:48:55.438Z,20.60
2022-08-07T08:52:24.465Z,21.00
2022-08-07T08:55:54.730Z,21.20
2022-08-07T09:02:35.246Z,21.80
2022-08-07T09:06:04.905Z,21.50
2022-08-07T09:09:56.692Z,21.70
2022-08-07T09:13:14.843Z,22.10
2022-08-07T09:16:48.131Z,22.00
2022-08-07T09:20:30.712Z,22.00
2022-08-07T09:24:53.661Z,22.40
2022-08-07T09:27:31.168Z,22.60
2022-08-07T09:40:12.849Z,23.00
2022-08-07T09:44:19.944Z,23.20
2022-08-07T09:48:06.180Z,23.30
2022-08-07T09:52:17.072Z,23.50
2022-08-07T09:56:02.439Z,23.40
2022-08-07T09:59:26.935Z,23.40
2022-08-07T10:03:08.199Z,23.80
2022-08-07T10:06:37.875Z,23.90
2022-08-07T10:14:00.281Z,24.40
2022-08-07T10:18:01.804Z,24.70
2022-08-07T10:21:19.827Z,24.90
2022-08-07T10:25:23.054Z,24.80
2022-08-07T10:28:49.602Z,24.80
2022-08-07T10:32:52.715Z,24.60
2022-08-07T10:36:41.408Z,24.90
2022-08-07T10:40:09.139Z,25.30
2022-08-07T10:43:34.186Z,25.40
2022-08-07T10:46:47.214Z,25.50
2022-08-07T10:49:54.868Z,25.70
2022-08-07T10:53:21.238Z,26.20
2022-08-07T10:57:00.164Z,25.80
2022-08-07T11:00:36.555Z,25.90
2022-08-07T11:03:52.671Z,26.20
2022-08-07T11:07:58.734Z,26.50
2022-08-07T11:11:35.933Z,27.00
2022-08-07T11:14:45.419Z,26.40
2022-08-07T11:18:36.941Z,26.50
2022-08-07T11:22:03.430Z,27.20
2022-08-07T11:25:14.864Z,26.70
2022-08-07T11:28:21.164Z,26.90
2022-08-07T11:31:49.009Z,27.20
2022-08-07T11:35:01.004Z,26.90
2022-08-07T11:38:10.177Z,26.80
2022-08-07T11:41:31.053Z,26.80
2022-08-07T11:44:57.883Z,27.10
2022-08-07T11:48:44.187Z,27.90
2022-08-07T11:52:37.616Z,28.00
2022-08-07T11:56:28.839Z,27.60
2022-08-07T12:00:12.127Z,28.90
2022-08-07T12:07:09.052Z,28.00
2022-08-07T12:10:41.684Z,27.60
2022-08-07T12:14:05.360Z,28.20
2022-08-07T12:17:19.877Z,29.30
2022-08-07T12:20:30.262Z,28.70
2022-08-07T12:24:07.102Z,28.90
2022-08-07T12:27:16.905Z,28.40
2022-08-07T12:30:16.426Z,28.20
2022-08-07T12:33:28.257Z,28.30
2022-08-07T12:36:32.940Z,28.50
2022-08-07T12:39:42.488Z,28.20
2022-08-07T12:42:52.676Z,28.90
2022-08-07T12:45:56.635Z,27.90
2022-08-07T12:49:25.550Z,29.10
2022-08-07T12:52:52.330Z,29.40
2022-08-07T12:56:10.300Z,28.90
2022-08-07T12:59:20.419Z,29.60
2022-08-07T13:02:33.278Z,30.40
2022-08-07T13:06:22.045Z,29.00
2022-08-07T13:10:28.600Z,30.30
2022-08-07T13:13:47.408Z,28.80
2022-08-07T13:17:01.033Z,29.10
2022-08-07T13:20:09.508Z,29.50
2022-08-07T13:24:01.194Z,30.50
2022-08-07T13:27:00.411Z,30.00
2022-08-07T13:30:19.013Z,30.10
2022-08-07T13:34:33.615Z,29.70
2022-08-07T13:36:57.596Z,29.70
2022-08-07T13:40:36.666Z,30.50
2022-08-07T13:43:52.403Z,30.50
2022-08-07T13:46:58.781Z,29.40
2022-08-07T13:50:35.063Z,30.10
2022-08-07T13:53:23.743Z,30.20
2022-08-07T13:56:34.958Z,30.20
2022-08-07T13:59:39.692Z,30.60
2022-08-07T14:02:39.832Z,30.50
2022-08-07T14:05:50.698Z,30.30
2022-08-07T14:08:53.633Z,30.30
2022-08-07T14:12:10.338Z,29.30
2022-08-07T14:15:16.746Z,29.70
2022-08-07T14:18:31.278Z,29.00
2022-08-07T14:22:01.696Z,30.10
2022-08-07T14:25:14.031Z,30.20
2022-08-07T14:28:14.070Z,29.10
2022-08-07T14:31:13.489Z,28.70
2022-08-07T14:34:19.983Z,30.10
2022-08-07T14:37:19.062Z,30.50
2022-08-07T14:40:26.609Z,30.70
2022-08-07T14:43:57.212Z,29.10
2022-08-07T14:46:56.552Z,28.10
2022-08-07T14:50:11.291Z,29.60
2022-08-07T14:53:09.972Z,29.60
2022-08-07T14:56:13.165Z,29.50
2022-08-07T15:00:05.781Z,29.40
2022-08-07T15:02:34.499Z,28.70
2022-08-07T15:05:33.052Z,29.10
2022-08-07T15:08:50.386Z,30.20
2022-08-07T15:12:05.257Z,29.50
2022-08-07T15:15:17.384Z,29.20
2022-08-07T15:18:33.781Z,29.20
2022-08-07T15:28:35.865Z,28.40
2022-08-07T15:32:00.860Z,28.30
2022-08-07T15:34:57.182Z,29.00
2022-08-07T15:38:17.427Z,28.80
2022-08-07T15:41:23.940Z,29.30
2022-08-07T15:44:51.774Z,29.40
2022-08-07T15:48:02.068Z,29.60
2022-08-07T15:51:08.482Z,29.50
2022-08-07T15:54:11.881Z,28.80
2022-08-07T15:57:40.210Z,28.80
2022-08-07T16:00:39.753Z,28.40
2022-08-07T16:03:46.277Z,28.50
2022-08-07T16:06:54.325Z,28.60
2022-08-07T16:09:57.085Z,29.00
2022-08-07T16:13:59.438Z,29.70
2022-08-07T16:18:00.950Z,29.00
2022-08-07T16:20:55.226Z,29.00
2022-08-07T16:24:37.237Z,28.60
2022-08-07T16:27:57.259Z,28.70
2022-08-07T16:31:50.728Z,28.40
2022-08-07T16:34:48.650Z,28.40
2022-08-07T16:38:57.250Z,28.10
2022-08-07T16:42:03.579Z,27.70
2022-08-07T16:46:33.602Z,28.00
2022-08-07T16:50:29.368Z,27.80
2022-08-07T16:54:01.548Z,29.50
2022-08-07T16:58:00.768Z,28.50
2022-08-07T17:00:57.126Z,27.60
2022-08-07T17:04:12.473Z,28.30
2022-08-07T17:07:57.714Z,28.20
2022-08-07T17:10:57.418Z,28.70
2022-08-07T17:14:22.274Z,28.30
2022-08-07T17:17:48.003Z,27.40
2022-08-07T17:20:46.543Z,27.50
2022-08-07T17:23:54.927Z,26.90
2022-08-07T17:27:10.102Z,27.80
2022-08-07T17:30:19.155Z,26.50
2022-08-07T17:33:39.125Z,26.20
2022-08-07T17:36:59.922Z,25.80
2022-08-07T17:40:35.470Z,25.80
2022-08-07T17:44:02.638Z,25.90
2022-08-07T17:47:16.804Z,26.20
2022-08-07T17:50:30.532Z,25.20
2022-08-07T17:54:02.354Z,25.10
2022-08-07T17:57:58.232Z,24.20
2022-08-07T18:00:57.572Z,24.30
2022-08-07T18:04:34.784Z,24.70
2022-08-07T18:07:46.751Z,24.70
2022-08-07T18:12:06.491Z,23.80
2022-08-07T18:15:11.242Z,24.10
2022-08-07T18:18:47.013Z,23.70
2022-08-07T18:21:58.537Z,23.50
2022-08-07T18:25:24.251Z,23.40
2022-08-07T18:28:36.282Z,23.20
2022-08-07T18:32:35.293Z,23.30
2022-08-07T18:36:02.854Z,23.10
2022-08-07T18:40:07.124Z,22.90
2022-08-07T18:43:49.177Z,22.50
2022-08-07T18:47:25.461Z,22.40
2022-08-07T18:51:09.900Z,22.20
2022-08-07T18:57:59.680Z,21.90
2022-08-07T19:02:18.305Z,21.80
2022-08-07T19:05:14.954Z,21.70
2022-08-07T19:08:49.558Z,22.00
2022-08-07T19:12:20.992Z,21.40
2022-08-07T19:17:00.355Z,21.20
2022-08-07T19:19:53.233Z,21.20
2022-08-07T19:23:18.606Z,21.20
2022-08-07T19:26:24.643Z,21.30
2022-08-07T19:31:05.964Z,21.10
2022-08-07T19:32:51.293Z,21.00
2022-08-07T19:35:56.579Z,20.80
2022-08-07T19:39:00.219Z,20.60
2022-08-07T19:42:08.124Z,20.60
2022-08-07T19:46:05.750Z,20.60
2022-08-07T19:49:02.500Z,20.50
2022-08-07T19:52:01.372Z,20.50
2022-08-07T21:20:18.934Z,18.30
2022-08-07T21:24:02.808Z,18.60
2022-08-07T21:28:05.911Z,18.10
2022-08-07T21:48:57.536Z,17.70
2022-08-07T21:52:17.711Z,17.60
2022-08-07T21:55:50.536Z,17.60
2022-08-07T21:59:09.843Z,17.20
2022-08-07T22:02:16.033Z,17.30
2022-08-07T22:05:44.727Z,17.10
2022-08-07T22:08:49.107Z,17.30
2022-08-07T22:12:04.924Z,17.20
2022-08-07T22:16:42.597Z,17.00
2022-08-07T22:18:54.985Z,17.00
2022-08-07T22:22:27.896Z,16.90
2022-08-07T22:25:43.558Z,17.00
2022-08-07T22:28:53.175Z,16.90
2022-08-07T22:32:10.595Z,16.90
2022-08-07T22:35:07.837Z,16.90
2022-08-07T22:38:28.429Z,16.70
2022-08-07T22:42:03.136Z,16.80
2022-08-07T22:45:10.960Z,16.70
2022-08-07T22:49:00.823Z,16.70
2022-08-07T22:52:37.004Z,16.70
2022-08-07T22:56:02.956Z,16.80
2022-08-07T22:59:37.738Z,16.70
2022-08-07T23:03:16.999Z,16.80
2022-08-07T23:06:51.644Z,16.60
2022-08-07T23:10:41.892Z,16.80
2022-08-07T23:14:16.626Z,16.50
2022-08-07T23:18:00.654Z,16.50
2022-08-07T23:21:20.950Z,16.70
2022-08-07T23:24:45.545Z,16.50
2022-08-07T23:28:28.554Z,16.40
2022-08-07T23:34:23.671Z,16.50
2022-08-07T23:35:38.827Z,16.60
2022-08-07T23:39:08.687Z,16.60
2022-08-07T23:42:48.288Z,16.40
2022-08-07T23:46:23.789Z,16.40
2022-08-07T23:50:11.911Z,16.50
2022-08-07T23:53:51.286Z,16.50
2022-08-07T23:57:18.429Z,16.10
